Galena, AK

11:35 PM AKDT on August 31, 2014 (GMT -0800)
Pitka | Change Station
CLOSE
Current Station
Airport
Location: Galena,
Elevation: 151 ft
Nearby Weather Stations
Active Advisory: Special Statement

Elev 151 ft 64.74 °N, 156.94 °W | Updated 37 minutes ago

Overcast
Overcast
49 °F
Feels Like 49 °F
N
6
Wind Variable Wind from South

Today
High -- | Low -- °F
--% Chance of Precip.
Yesterday
High -- | Low -- °F
Precip. -- in
7:05 AM 9:48 PM
Waxing Crescent, 38% visible
Pressure 29.81 in
Visibility 10.0 miles
Clouds Overcast 7000 ft
Dew Point 39 °F
Humidity 69%
Rainfall 0.00 in
Snow Depth Not available.
UV 0 out of 12
Pollen Not available.
Air Quality Not available.
Flu Activity Not available.
METAR PAGA 010658Z AUTO 19005KT 10SM OVC070 09/04 A2979 RMK AO2 SLP094 T00940039 PNO $

More Conditions Fewer Conditions

Pressure 29.81 in
Visibility 10.0 miles
Clouds Overcast 7000 ft
Dew Point 39 °F
Humidity 69%
Rainfall 0.00 in
Snow Depth Not available.
UV 0 out of 12
Pollen Not available.
Air Quality Not available.
Flu Activity Not available.
METAR PAGA 010658Z AUTO 19005KT 10SM OVC070 09/04 A2979 RMK AO2 SLP094 T00940039 PNO $

More Conditions Fewer Conditions

10-Day Weather Forecast

Almanac

Astronomy

Aug. 31, 2014 Rise Set
Actual Time 7:05 AM AKDT 9:48 PM AKDT
Civil Twilight 6:10 AM AKDT 10:42 PM AKDT
Nautical Twilight 4:51 AM AKDT 12:00 AM AKDT
Astronomical Twilight 3:00 AM AKDT 1:55 AM AKDT
Moon 3:25 PM AKDT (8/31) 10:46 PM AKDT (8/31)
Length of Visible Light 16h 32m
Length of Day
14h 42m
Tomorrow will be 6m 41s shorter.
Waxing Crescent, 38% of the Moon is Illuminated
Sep 1
Waxing Crescent
Sep 2
First Quarter
Sep 8
Full
Sep 15
Last Quarter
Sep 24
New

Community

WunderPhotos

Upload Photos

1,749,154 photos uploaded!

Nearby

Snow Depth

Station Depth Elevation
Rocky Point 4 in 500 ft
Gobblers Knob 0 in 2030 ft
Coldfoot 0 in 1040 ft
Susitna Valley High 2 in 375 ft
Little Chena Ridge 1 in 2000 ft

Earthquake Activity

City Distance Mag. Time & Date
No recent earthquake activity has been reported nearby.
Minimum magnitude displayed is 2.5.

Coastal Water Temperatures

Place Temperature
No Stations Reporting

Nearby Weather Stations